createdAt,value
2023-04-22T00:00:42.813Z,1.00
2023-04-22T00:03:18.566Z,10.20
2023-04-22T00:08:14.021Z,13.90
2023-04-22T00:23:00.065Z,99.90
2023-04-22T00:30:22.641Z,99.90
2023-04-22T00:37:45.355Z,15.70
2023-04-22T00:40:12.889Z,99.90
2023-04-22T00:42:41.371Z,41.80
2023-04-22T00:45:12.082Z,99.90
2023-04-22T00:52:34.855Z,64.50
2023-04-22T00:55:02.474Z,99.90
2023-04-22T00:57:33.612Z,98.90
2023-04-22T01:02:29.875Z,99.90
2023-04-22T01:19:47.592Z,87.10
2023-04-22T01:22:15.347Z,99.90
2023-04-22T01:24:43.720Z,99.90
2023-04-22T01:27:12.055Z,99.90
2023-04-22T01:34:35.356Z,99.90
2023-04-22T01:56:55.193Z,99.90
2023-04-22T02:16:37.945Z,99.90
2023-04-22T02:41:18.744Z,99.90
2023-04-22T02:43:46.554Z,99.90
2023-04-22T02:56:08.549Z,1.00
2023-04-22T03:10:55.636Z,1.00
2023-04-22T03:15:51.863Z,1.00
2023-04-22T03:30:39.066Z,99.90
2023-04-22T03:40:39.610Z,1.00
2023-04-22T03:43:17.853Z,1.00
2023-04-22T03:45:53.109Z,1.00
2023-04-22T03:48:24.925Z,1.00
2023-04-22T03:50:53.618Z,1.00
2023-04-22T03:53:21.030Z,1.00
2023-04-22T03:58:18.304Z,1.00
2023-04-22T04:00:46.564Z,1.00
2023-04-22T04:03:17.334Z,1.00
2023-04-22T04:05:48.049Z,1.00
2023-04-22T04:08:15.983Z,1.00
2023-04-22T04:10:43.946Z,1.00
2023-04-22T04:13:11.749Z,1.00
2023-04-22T04:16:00.439Z,1.00
2023-04-22T04:18:29.875Z,1.00
2023-04-22T04:23:28.325Z,1.00
2023-04-22T04:25:55.839Z,1.00
2023-04-22T04:28:23.321Z,1.00
2023-04-22T04:30:50.461Z,1.00
2023-04-22T04:33:18.149Z,1.00
2023-04-22T04:35:48.091Z,1.00
2023-04-22T04:38:19.682Z,1.00
2023-04-22T04:40:51.052Z,1.00
2023-04-22T04:43:26.091Z,1.00
2023-04-22T04:48:50.783Z,1.00
2023-04-22T04:51:20.368Z,1.00
2023-04-22T04:53:55.419Z,1.00
2023-04-22T04:56:23.943Z,1.00
2023-04-22T05:01:23.725Z,1.00
2023-04-22T05:03:52.553Z,28.00
2023-04-22T05:06:21.589Z,99.90
2023-04-22T05:09:03.582Z,34.80
2023-04-22T05:11:30.901Z,69.80
2023-04-22T05:14:00.811Z,17.30
2023-04-22T05:16:33.240Z,99.90
2023-04-22T05:19:01.332Z,1.00
2023-04-22T05:21:28.577Z,1.00
2023-04-22T05:23:58.134Z,1.00
2023-04-22T05:26:26.036Z,23.80
2023-04-22T05:28:53.881Z,1.00
2023-04-22T05:31:22.238Z,1.00
2023-04-22T05:33:49.688Z,1.00
2023-04-22T05:36:17.270Z,1.00
2023-04-22T05:38:47.199Z,1.00
2023-04-22T05:41:15.785Z,99.90
2023-04-22T05:43:43.580Z,99.90
2023-04-22T05:46:15.890Z,99.90
2023-04-22T05:48:44.891Z,99.90
2023-04-22T05:51:32.955Z,99.90
2023-04-22T05:54:00.503Z,71.00
2023-04-22T05:56:27.871Z,28.60
2023-04-22T05:58:55.701Z,9.70
2023-04-22T06:01:24.998Z,4.20
2023-04-22T06:03:58.023Z,5.90
2023-04-22T06:06:26.249Z,1.00
2023-04-22T06:08:53.964Z,1.00
2023-04-22T06:11:21.098Z,1.00
2023-04-22T06:13:48.504Z,1.00
2023-04-22T06:16:16.491Z,1.00
2023-04-22T06:18:43.991Z,1.00
2023-04-22T06:21:12.470Z,1.00
2023-04-22T06:23:40.690Z,1.00
2023-04-22T06:26:08.264Z,1.00
2023-04-22T06:28:37.656Z,1.00
2023-04-22T06:31:10.441Z,1.00
2023-04-22T06:33:38.114Z,1.00
2023-04-22T06:36:06.141Z,1.00
2023-04-22T06:38:35.197Z,1.00
2023-04-22T06:41:22.577Z,1.00
2023-04-22T06:43:51.826Z,1.00
2023-04-22T06:46:19.045Z,1.00
2023-04-22T06:48:52.591Z,1.00
2023-04-22T06:51:49.157Z,1.00
2023-04-22T06:54:16.781Z,1.00
2023-04-22T06:56:44.862Z,1.00
2023-04-22T06:59:12.586Z,1.00
2023-04-22T07:01:39.864Z,1.00
2023-04-22T07:04:08.070Z,12.60
2023-04-22T07:09:04.273Z,1.00
2023-04-22T07:16:34.081Z,1.00
2023-04-22T07:19:01.730Z,1.00
2023-04-22T07:21:29.139Z,1.00
2023-04-22T07:23:56.678Z,1.00
2023-04-22T07:31:19.507Z,1.00
2023-04-22T07:33:46.893Z,1.00
2023-04-22T07:36:14.112Z,1.00
2023-04-22T07:38:41.602Z,1.00
2023-04-22T07:41:08.825Z,1.00
2023-04-22T07:43:37.240Z,1.00
2023-04-22T07:46:04.661Z,1.00
2023-04-22T07:48:32.232Z,1.00
2023-04-22T07:50:59.518Z,1.00
2023-04-22T07:53:27.097Z,1.00
2023-04-22T07:55:55.596Z,1.00
2023-04-22T07:58:23.312Z,1.00
2023-04-22T08:00:50.516Z,1.00
2023-04-22T08:03:18.307Z,1.00
2023-04-22T08:05:45.822Z,1.00
2023-04-22T08:08:13.327Z,1.00
2023-04-22T08:10:40.614Z,1.00
2023-04-22T08:13:08.150Z,1.00
2023-04-22T08:15:35.534Z,1.00
2023-04-22T08:18:03.558Z,1.00
2023-04-22T08:20:30.902Z,1.00
2023-04-22T08:23:00.661Z,1.00
2023-04-22T08:25:28.598Z,1.00
2023-04-22T08:27:56.328Z,1.00
2023-04-22T08:30:23.824Z,1.00
2023-04-22T08:32:53.486Z,1.00
2023-04-22T08:35:20.944Z,1.00
2023-04-22T08:40:15.876Z,1.00
2023-04-22T08:42:44.587Z,1.00
2023-04-22T08:45:13.302Z,1.00
2023-04-22T08:47:41.443Z,1.00
2023-04-22T08:50:10.892Z,1.00
2023-04-22T08:52:38.634Z,1.00
2023-04-22T08:55:06.527Z,1.00
2023-04-22T08:57:36.068Z,1.00
2023-04-22T09:00:05.431Z,1.00
2023-04-22T09:07:32.617Z,1.00
2023-04-22T09:14:57.582Z,1.00
2023-04-22T09:17:33.409Z,1.00
2023-04-22T09:20:02.650Z,1.00
2023-04-22T09:22:41.538Z,1.00
2023-04-22T09:25:16.798Z,1.00
2023-04-22T09:32:41.326Z,1.00
2023-04-22T09:37:48.487Z,1.00
2023-04-22T09:40:18.324Z,1.00
2023-04-22T09:42:53.102Z,1.00
2023-04-22T09:45:31.297Z,1.00
2023-04-22T09:48:06.438Z,1.00
2023-04-22T09:50:33.573Z,1.00
2023-04-22T09:53:04.645Z,1.00
2023-04-22T09:55:38.028Z,1.00
2023-04-22T09:58:12.536Z,1.00
2023-04-22T10:00:47.744Z,1.00
2023-04-22T10:03:16.583Z,1.00
2023-04-22T10:05:46.259Z,1.00
2023-04-22T10:08:15.593Z,1.00
2023-04-22T10:10:43.095Z,1.00
2023-04-22T10:13:10.679Z,1.00
2023-04-22T10:15:44.577Z,1.00
2023-04-22T10:18:14.937Z,1.00
2023-04-22T10:20:43.463Z,1.00
2023-04-22T10:23:18.893Z,1.00
2023-04-22T10:25:58.555Z,1.00
2023-04-22T10:28:29.432Z,1.00
2023-04-22T10:30:57.959Z,1.00
2023-04-22T10:33:27.775Z,1.00
2023-04-22T10:36:16.560Z,1.00
2023-04-22T10:38:50.170Z,1.00
2023-04-22T10:41:23.805Z,1.00
2023-04-22T10:43:59.283Z,1.00
2023-04-22T10:46:39.970Z,1.00
2023-04-22T10:49:13.100Z,1.00
2023-04-22T10:51:40.803Z,1.00
2023-04-22T10:54:36.550Z,1.00
2023-04-22T10:57:12.119Z,1.00
2023-04-22T10:59:52.260Z,1.00
2023-04-22T11:02:20.931Z,1.00
2023-04-22T11:04:49.538Z,1.00
2023-04-22T11:07:29.739Z,1.00
2023-04-22T11:10:10.733Z,1.00
2023-04-22T11:12:42.335Z,1.00
2023-04-22T11:15:15.369Z,1.00
2023-04-22T11:17:45.342Z,1.00
2023-04-22T11:20:17.323Z,1.00
2023-04-22T11:22:47.211Z,1.00
2023-04-22T11:25:14.950Z,1.00
2023-04-22T11:27:45.362Z,1.00
2023-04-22T11:30:18.702Z,1.00
2023-04-22T11:32:54.011Z,1.00
2023-04-22T11:35:27.779Z,1.00
2023-04-22T11:38:01.052Z,1.00
2023-04-22T11:40:35.870Z,1.00
2023-04-22T11:43:07.070Z,1.00
2023-04-22T11:45:36.400Z,1.00
2023-04-22T11:48:05.820Z,1.00
2023-04-22T11:50:36.024Z,1.00
2023-04-22T11:53:05.172Z,1.00
2023-04-22T11:55:35.453Z,1.00
2023-04-22T11:58:25.365Z,1.00
2023-04-22T12:00:54.550Z,1.00
2023-04-22T12:03:27.039Z,1.00
2023-04-22T12:06:01.376Z,1.00
2023-04-22T12:08:34.415Z,1.00
2023-04-22T12:11:07.159Z,1.00
2023-04-22T12:13:43.961Z,1.00
2023-04-22T12:16:29.602Z,1.00
2023-04-22T12:18:56.722Z,1.00
2023-04-22T12:21:26.042Z,1.00
2023-04-22T12:24:08.215Z,1.00
2023-04-22T12:26:38.176Z,1.00
2023-04-22T12:29:05.464Z,1.00
2023-04-22T12:31:33.221Z,1.00
2023-04-22T12:34:00.602Z,1.00
2023-04-22T12:36:28.272Z,1.00
2023-04-22T12:38:55.346Z,1.00
2023-04-22T12:41:23.836Z,1.00
2023-04-22T12:43:52.902Z,1.00
2023-04-22T12:46:21.103Z,1.00
2023-04-22T12:48:48.355Z,1.00
2023-04-22T12:51:16.227Z,1.00
2023-04-22T12:53:43.544Z,1.00
2023-04-22T12:56:10.961Z,1.00
2023-04-22T12:58:38.084Z,1.00
2023-04-22T13:01:05.591Z,1.00
2023-04-22T13:03:32.893Z,1.00
2023-04-22T13:06:00.526Z,1.00
2023-04-22T13:08:29.106Z,1.00
2023-04-22T13:10:56.581Z,1.00
2023-04-22T13:13:24.701Z,1.00
2023-04-22T13:15:58.187Z,1.00
2023-04-22T13:18:25.435Z,1.00
2023-04-22T13:20:55.157Z,1.00
2023-04-22T13:23:23.516Z,1.00
2023-04-22T13:25:51.766Z,1.00
2023-04-22T13:28:20.242Z,1.00
2023-04-22T13:30:47.835Z,1.00
2023-04-22T13:33:15.008Z,1.00
2023-04-22T13:35:43.016Z,1.00
2023-04-22T13:38:10.265Z,1.00
2023-04-22T13:40:37.695Z,1.00
2023-04-22T13:43:04.869Z,1.00
2023-04-22T13:45:32.924Z,1.00
2023-04-22T13:48:00.437Z,1.00
2023-04-22T13:50:28.291Z,1.00
2023-04-22T13:52:55.496Z,1.00
2023-04-22T13:55:23.146Z,1.00
2023-04-22T13:57:52.012Z,1.00
2023-04-22T14:00:20.867Z,1.00
2023-04-22T14:02:48.710Z,1.00
2023-04-22T14:05:16.660Z,1.00
2023-04-22T14:07:43.822Z,1.00
2023-04-22T14:10:13.222Z,1.00
2023-04-22T14:12:40.762Z,1.00
2023-04-22T14:15:11.135Z,1.00
2023-04-22T14:17:40.276Z,1.00
2023-04-22T14:20:09.792Z,1.00
2023-04-22T14:22:37.147Z,1.00
2023-04-22T14:25:04.912Z,1.00
2023-04-22T14:27:32.835Z,1.00
2023-04-22T14:30:01.300Z,1.00
2023-04-22T14:32:29.373Z,1.00
2023-04-22T14:34:56.845Z,1.00
2023-04-22T14:37:24.109Z,1.00
2023-04-22T14:39:51.871Z,1.00
2023-04-22T14:42:19.644Z,1.00
2023-04-22T14:44:47.278Z,1.00
2023-04-22T14:47:14.428Z,1.00
2023-04-22T14:49:42.115Z,1.00
2023-04-22T14:52:09.298Z,1.00
2023-04-22T14:54:36.946Z,1.00
2023-04-22T14:57:04.249Z,1.00
2023-04-22T14:59:31.631Z,1.00
2023-04-22T15:01:58.876Z,1.00
2023-04-22T15:04:26.719Z,1.00
2023-04-22T15:06:57.499Z,1.00
2023-04-22T15:09:25.333Z,1.00
2023-04-22T15:11:54.249Z,1.00
2023-04-22T15:14:22.048Z,1.00
2023-04-22T15:16:49.211Z,1.00
2023-04-22T15:19:16.719Z,1.00
2023-04-22T15:21:43.789Z,1.00
2023-04-22T15:24:11.353Z,1.00
2023-04-22T15:26:40.719Z,1.00
2023-04-22T15:29:08.165Z,1.00
2023-04-22T15:31:37.912Z,1.00
2023-04-22T15:34:06.637Z,1.00
2023-04-22T15:36:33.779Z,1.00
2023-04-22T15:39:01.487Z,1.00
2023-04-22T15:41:28.682Z,1.00
2023-04-22T15:43:56.011Z,1.00
2023-04-22T15:46:23.442Z,1.00
2023-04-22T15:48:50.892Z,1.00
2023-04-22T15:51:19.225Z,1.00
2023-04-22T15:53:46.690Z,1.00
2023-04-22T15:56:15.355Z,1.00
2023-04-22T15:58:42.665Z,1.00
2023-04-22T16:01:18.747Z,1.00
2023-04-22T16:03:48.984Z,1.00
2023-04-22T16:06:17.451Z,1.00
2023-04-22T16:08:45.703Z,1.00
2023-04-22T16:11:15.414Z,1.00
2023-04-22T16:13:43.449Z,1.00
2023-04-22T16:16:11.229Z,1.00
2023-04-22T16:18:39.025Z,1.00
2023-04-22T16:21:06.574Z,1.00
2023-04-22T16:23:34.780Z,1.00
2023-04-22T16:26:04.451Z,1.00
2023-04-22T16:28:32.761Z,1.00
2023-04-22T16:31:02.387Z,1.00
2023-04-22T16:33:29.861Z,1.00
2023-04-22T16:35:57.570Z,1.00
2023-04-22T16:38:25.348Z,1.00
2023-04-22T16:40:54.370Z,1.00
2023-04-22T16:43:22.082Z,1.00
2023-04-22T16:45:51.734Z,1.00
2023-04-22T16:48:19.243Z,1.00
2023-04-22T16:50:46.337Z,1.00
2023-04-22T16:53:13.806Z,1.00
2023-04-22T16:55:41.532Z,1.00
2023-04-22T16:58:09.019Z,1.00
2023-04-22T17:00:36.242Z,1.00
2023-04-22T17:03:04.217Z,1.00
2023-04-22T17:05:31.715Z,1.00
2023-04-22T17:07:59.672Z,1.00
2023-04-22T17:10:27.739Z,1.00
2023-04-22T17:12:55.500Z,1.00
2023-04-22T17:15:22.714Z,1.00
2023-04-22T17:17:50.376Z,1.00
2023-04-22T17:20:17.786Z,17.90
2023-04-22T17:25:13.577Z,99.90
2023-04-22T17:27:41.032Z,99.90
2023-04-22T17:30:08.862Z,1.00
2023-04-22T17:37:32.093Z,99.90
2023-04-22T17:39:59.553Z,1.00
2023-04-22T17:42:38.722Z,1.00
2023-04-22T17:45:10.964Z,1.00
2023-04-22T17:47:41.176Z,99.90
2023-04-22T17:50:10.161Z,99.90
2023-04-22T17:52:37.805Z,99.90
2023-04-22T17:55:05.603Z,1.00
2023-04-22T17:57:33.318Z,99.90
2023-04-22T18:00:00.547Z,1.00
2023-04-22T18:02:28.352Z,99.90
2023-04-22T18:04:56.055Z,99.90
2023-04-22T18:07:24.093Z,99.90
2023-04-22T18:09:51.808Z,99.90
2023-04-22T18:14:48.309Z,99.90
2023-04-22T18:17:20.090Z,99.90
2023-04-22T18:19:51.249Z,1.00
2023-04-22T18:24:47.158Z,1.00
2023-04-22T18:27:14.777Z,1.00
2023-04-22T18:29:42.554Z,99.90
2023-04-22T18:32:11.370Z,1.00
2023-04-22T18:34:39.147Z,99.90
2023-04-22T18:37:07.390Z,1.00
2023-04-22T18:39:34.600Z,1.00
2023-04-22T18:42:03.017Z,1.00
2023-04-22T18:44:30.615Z,1.00
2023-04-22T18:46:58.587Z,1.00
2023-04-22T18:49:26.423Z,1.00
2023-04-22T18:51:54.313Z,1.00
2023-04-22T18:54:21.800Z,1.00
2023-04-22T18:56:49.336Z,1.00
2023-04-22T18:59:16.601Z,1.00
2023-04-22T19:01:44.537Z,1.00
2023-04-22T19:04:12.375Z,1.00
2023-04-22T19:06:41.543Z,1.00
2023-04-22T19:09:08.702Z,1.00
2023-04-22T19:11:36.294Z,1.00
2023-04-22T19:14:03.614Z,1.00
2023-04-22T19:16:31.145Z,1.00
2023-04-22T19:18:58.385Z,1.00
2023-04-22T19:21:27.144Z,1.00
2023-04-22T19:23:56.396Z,1.00
2023-04-22T19:26:32.619Z,1.00
2023-04-22T19:29:01.905Z,1.00
2023-04-22T19:31:30.854Z,1.00
2023-04-22T19:33:59.870Z,1.00
2023-04-22T19:36:36.486Z,1.00
2023-04-22T19:39:06.197Z,1.00
2023-04-22T19:41:34.660Z,1.00
2023-04-22T19:44:02.276Z,1.00
2023-04-22T19:46:29.897Z,1.00
2023-04-22T19:48:57.569Z,1.00
2023-04-22T19:51:25.152Z,1.00
2023-04-22T19:53:54.042Z,1.00
2023-04-22T19:56:21.761Z,1.00
2023-04-22T19:58:49.785Z,1.00
2023-04-22T20:01:17.655Z,1.00
2023-04-22T20:03:45.618Z,1.00
2023-04-22T20:06:15.125Z,1.00
2023-04-22T20:08:43.266Z,1.00
2023-04-22T20:11:12.061Z,1.00
2023-04-22T20:13:41.175Z,1.00
2023-04-22T20:16:10.019Z,1.00
2023-04-22T20:18:39.871Z,1.00
2023-04-22T20:21:12.106Z,1.00
2023-04-22T20:23:42.863Z,1.00
2023-04-22T20:26:14.669Z,1.00
2023-04-22T20:28:52.107Z,1.00
2023-04-22T20:31:22.591Z,1.00
2023-04-22T20:33:51.158Z,1.00
2023-04-22T20:36:24.562Z,1.00
2023-04-22T20:38:55.012Z,1.00
2023-04-22T20:41:24.754Z,1.00
2023-04-22T20:43:52.547Z,1.00
2023-04-22T20:46:22.808Z,1.00
2023-04-22T20:48:50.521Z,1.00
2023-04-22T20:51:18.331Z,1.00
2023-04-22T20:53:45.494Z,1.00
2023-04-22T20:56:13.330Z,1.00
2023-04-22T20:58:40.558Z,1.00
2023-04-22T21:01:09.204Z,1.00
2023-04-22T21:03:40.412Z,1.00
2023-04-22T21:06:09.267Z,1.00
2023-04-22T21:08:39.304Z,1.00
2023-04-22T21:11:07.614Z,1.00
2023-04-22T21:13:35.249Z,1.00
2023-04-22T21:16:04.406Z,1.00
2023-04-22T21:18:33.734Z,1.00
2023-04-22T21:21:04.875Z,1.00
2023-04-22T21:23:32.481Z,1.00
2023-04-22T21:26:02.088Z,1.00
2023-04-22T21:28:29.956Z,1.00
2023-04-22T21:30:58.194Z,1.00
2023-04-22T21:33:25.596Z,1.00
2023-04-22T21:35:53.319Z,1.00
2023-04-22T21:38:20.860Z,1.00
2023-04-22T21:40:48.252Z,1.00
2023-04-22T21:43:15.470Z,1.00
2023-04-22T21:45:42.881Z,1.00
2023-04-22T21:48:10.057Z,1.00
2023-04-22T21:50:37.934Z,1.00
2023-04-22T21:53:05.261Z,1.00
2023-04-22T21:55:32.634Z,1.00
2023-04-22T21:57:59.756Z,1.00
2023-04-22T22:00:27.376Z,1.00
2023-04-22T22:02:54.668Z,1.00
2023-04-22T22:05:22.430Z,1.00
2023-04-22T22:07:50.172Z,1.00
2023-04-22T22:10:22.832Z,1.00
2023-04-22T22:12:51.165Z,1.00
2023-04-22T22:15:18.946Z,1.00
2023-04-22T22:17:46.293Z,1.00
2023-04-22T22:20:20.373Z,1.00
2023-04-22T22:22:48.009Z,1.00
2023-04-22T22:25:16.820Z,1.00
2023-04-22T22:27:49.309Z,1.00
2023-04-22T22:30:19.017Z,1.00
2023-04-22T22:32:46.900Z,1.00
2023-04-22T22:35:14.545Z,1.00
2023-04-22T22:37:41.751Z,1.00
2023-04-22T22:40:10.269Z,1.00
2023-04-22T22:42:37.381Z,1.00
2023-04-22T22:45:08.351Z,1.00
2023-04-22T22:47:36.065Z,18.50
2023-04-22T22:50:03.866Z,14.70
2023-04-22T22:52:32.311Z,21.70
2023-04-22T22:54:59.904Z,11.80
2023-04-22T22:57:27.142Z,20.60
2023-04-22T22:59:54.627Z,29.00
2023-04-22T23:02:21.865Z,27.10
2023-04-22T23:04:49.563Z,29.90
2023-04-22T23:07:17.771Z,31.20
2023-04-22T23:09:45.347Z,49.60
2023-04-22T23:12:12.806Z,45.80
2023-04-22T23:14:41.345Z,49.60
2023-04-22T23:19:36.950Z,45.70
2023-04-22T23:22:06.931Z,71.50
2023-04-22T23:24:34.837Z,75.10
2023-04-22T23:27:02.293Z,99.90
2023-04-22T23:29:30.066Z,93.90
2023-04-22T23:32:00.760Z,91.50
2023-04-22T23:34:31.311Z,89.90
2023-04-22T23:39:26.433Z,58.20
2023-04-22T23:41:53.536Z,84.00
2023-04-22T23:44:21.008Z,88.30
2023-04-22T23:46:48.299Z,99.90
2023-04-22T23:49:15.947Z,99.90
2023-04-22T23:51:43.890Z,99.90
2023-04-22T23:56:39.118Z,99.90
2023-04-22T23:59:07.322Z,99.90
